sensor_id;sensor_type;location;lat;lon;timestamp;temperature;humidity
27940;DHT22;15275;51.716;14.324;2023-09-08T00:02:18;21.20;81.50
27940;DHT22;15275;51.716;14.324;2023-09-08T00:04:43;21.20;81.50
27940;DHT22;15275;51.716;14.324;2023-09-08T00:07:09;21.20;81.50
27940;DHT22;15275;51.716;14.324;2023-09-08T00:09:35;21.10;81.60
27940;DHT22;15275;51.716;14.324;2023-09-08T00:12:00;21.10;81.70
27940;DHT22;15275;51.716;14.324;2023-09-08T00:14:26;21.10;81.70
27940;DHT22;15275;51.716;14.324;2023-09-08T00:16:52;21.10;81.70
27940;DHT22;15275;51.716;14.324;2023-09-08T00:19:21;21.00;81.70
27940;DHT22;15275;51.716;14.324;2023-09-08T00:21:48;21.00;81.70
27940;DHT22;15275;51.716;14.324;2023-09-08T00:24:14;21.00;81.70
27940;DHT22;15275;51.716;14.324;2023-09-08T00:26:40;21.00;81.80
27940;DHT22;15275;51.716;14.324;2023-09-08T00:29:06;21.00;81.80
27940;DHT22;15275;51.716;14.324;2023-09-08T00:31:32;21.00;81.80
27940;DHT22;15275;51.716;14.324;2023-09-08T00:33:58;20.90;81.80
27940;DHT22;15275;51.716;14.324;2023-09-08T00:36:24;20.90;81.90
27940;DHT22;15275;51.716;14.324;2023-09-08T00:38:50;20.90;81.80
27940;DHT22;15275;51.716;14.324;2023-09-08T00:41:15;20.90;81.90
27940;DHT22;15275;51.716;14.324;2023-09-08T00:43:41;20.90;81.90
27940;DHT22;15275;51.716;14.324;2023-09-08T00:46:07;20.90;81.90
27940;DHT22;15275;51.716;14.324;2023-09-08T00:48:33;20.80;81.90
27940;DHT22;15275;51.716;14.324;2023-09-08T00:51:00;20.80;81.90
27940;DHT22;15275;51.716;14.324;2023-09-08T00:53:26;20.80;81.90
27940;DHT22;15275;51.716;14.324;2023-09-08T00:55:52;20.80;81.90
27940;DHT22;15275;51.716;14.324;2023-09-08T00:58:18;20.70;81.90
27940;DHT22;15275;51.716;14.324;2023-09-08T01:00:43;20.70;81.90
27940;DHT22;15275;51.716;14.324;2023-09-08T01:03:11;20.70;81.90
27940;DHT22;15275;51.716;14.324;2023-09-08T01:05:37;20.70;81.90
27940;DHT22;15275;51.716;14.324;2023-09-08T01:08:02;20.60;81.80
27940;DHT22;15275;51.716;14.324;2023-09-08T01:10:29;20.60;81.80
27940;DHT22;15275;51.716;14.324;2023-09-08T01:12:55;20.60;81.80
27940;DHT22;15275;51.716;14.324;2023-09-08T01:15:20;20.60;81.80
27940;DHT22;15275;51.716;14.324;2023-09-08T01:17:46;20.50;81.80
27940;DHT22;15275;51.716;14.324;2023-09-08T01:20:25;20.50;81.80
27940;DHT22;15275;51.716;14.324;2023-09-08T01:25:29;20.40;82.00
27940;DHT22;15275;51.716;14.324;2023-09-08T01:27:58;20.40;82.00
27940;DHT22;15275;51.716;14.324;2023-09-08T01:30:26;20.40;82.10
27940;DHT22;15275;51.716;14.324;2023-09-08T01:32:53;20.30;82.10
27940;DHT22;15275;51.716;14.324;2023-09-08T01:35:19;20.30;82.20
27940;DHT22;15275;51.716;14.324;2023-09-08T01:37:46;20.30;82.20
27940;DHT22;15275;51.716;14.324;2023-09-08T01:40:12;20.30;82.30
27940;DHT22;15275;51.716;14.324;2023-09-08T01:42:39;20.30;82.30
27940;DHT22;15275;51.716;14.324;2023-09-08T01:45:05;20.30;82.40
27940;DHT22;15275;51.716;14.324;2023-09-08T01:47:32;20.30;82.30
27940;DHT22;15275;51.716;14.324;2023-09-08T01:49:58;20.20;82.40
27940;DHT22;15275;51.716;14.324;2023-09-08T01:52:24;20.30;82.30
27940;DHT22;15275;51.716;14.324;2023-09-08T01:54:50;20.20;82.30
27940;DHT22;15275;51.716;14.324;2023-09-08T01:57:15;20.20;82.40
27940;DHT22;15275;51.716;14.324;2023-09-08T01:59:41;20.20;82.40
27940;DHT22;15275;51.716;14.324;2023-09-08T02:02:07;20.20;82.40
27940;DHT22;15275;51.716;14.324;2023-09-08T02:04:32;20.20;82.40
27940;DHT22;15275;51.716;14.324;2023-09-08T02:06:58;20.20;82.40
27940;DHT22;15275;51.716;14.324;2023-09-08T02:09:34;20.20;82.50
27940;DHT22;15275;51.716;14.324;2023-09-08T02:12:01;20.20;82.50
27940;DHT22;15275;51.716;14.324;2023-09-08T02:14:27;20.20;82.50
27940;DHT22;15275;51.716;14.324;2023-09-08T02:16:53;20.20;82.40
27940;DHT22;15275;51.716;14.324;2023-09-08T02:19:19;20.20;82.40
27940;DHT22;15275;51.716;14.324;2023-09-08T02:21:45;20.10;82.40
27940;DHT22;15275;51.716;14.324;2023-09-08T02:24:11;20.10;82.50
27940;DHT22;15275;51.716;14.324;2023-09-08T02:26:38;20.10;82.50
27940;DHT22;15275;51.716;14.324;2023-09-08T02:29:04;20.10;82.50
27940;DHT22;15275;51.716;14.324;2023-09-08T02:31:29;20.10;82.50
27940;DHT22;15275;51.716;14.324;2023-09-08T02:33:55;20.10;82.50
27940;DHT22;15275;51.716;14.324;2023-09-08T02:36:21;20.10;82.50
27940;DHT22;15275;51.716;14.324;2023-09-08T02:38:54;20.10;82.40
27940;DHT22;15275;51.716;14.324;2023-09-08T02:41:20;20.10;82.40
27940;DHT22;15275;51.716;14.324;2023-09-08T02:43:46;20.00;82.40
27940;DHT22;15275;51.716;14.324;2023-09-08T02:46:12;20.00;82.40
27940;DHT22;15275;51.716;14.324;2023-09-08T02:48:38;20.00;82.30
27940;DHT22;15275;51.716;14.324;2023-09-08T02:51:04;20.00;82.30
27940;DHT22;15275;51.716;14.324;2023-09-08T02:53:30;19.90;82.30
27940;DHT22;15275;51.716;14.324;2023-09-08T02:55:56;19.90;82.30
27940;DHT22;15275;51.716;14.324;2023-09-08T02:58:22;19.90;82.30
27940;DHT22;15275;51.716;14.324;2023-09-08T03:00:48;19.90;82.30
27940;DHT22;15275;51.716;14.324;2023-09-08T03:03:14;19.90;82.30
27940;DHT22;15275;51.716;14.324;2023-09-08T03:05:40;19.90;82.30
27940;DHT22;15275;51.716;14.324;2023-09-08T03:08:05;19.80;82.40
27940;DHT22;15275;51.716;14.324;2023-09-08T03:10:31;19.80;82.40
27940;DHT22;15275;51.716;14.324;2023-09-08T03:13:00;19.80;82.50
27940;DHT22;15275;51.716;14.324;2023-09-08T03:15:26;19.80;82.40
27940;DHT22;15275;51.716;14.324;2023-09-08T03:17:57;19.80;82.40
27940;DHT22;15275;51.716;14.324;2023-09-08T03:20:26;19.80;82.40
27940;DHT22;15275;51.716;14.324;2023-09-08T03:22:53;19.70;82.40
27940;DHT22;15275;51.716;14.324;2023-09-08T03:25:20;19.70;82.40
27940;DHT22;15275;51.716;14.324;2023-09-08T03:27:46;19.70;82.50
27940;DHT22;15275;51.716;14.324;2023-09-08T03:30:12;19.70;82.50
27940;DHT22;15275;51.716;14.324;2023-09-08T03:32:38;19.60;82.50
27940;DHT22;15275;51.716;14.324;2023-09-08T03:35:04;19.60;82.50
27940;DHT22;15275;51.716;14.324;2023-09-08T03:37:33;19.60;82.50
27940;DHT22;15275;51.716;14.324;2023-09-08T03:40:02;19.60;82.50
27940;DHT22;15275;51.716;14.324;2023-09-08T03:42:30;19.60;82.50
27940;DHT22;15275;51.716;14.324;2023-09-08T03:44:56;19.60;82.50
27940;DHT22;15275;51.716;14.324;2023-09-08T03:47:22;19.50;82.50
27940;DHT22;15275;51.716;14.324;2023-09-08T03:49:47;19.50;82.60
27940;DHT22;15275;51.716;14.324;2023-09-08T03:52:13;19.50;82.60
27940;DHT22;15275;51.716;14.324;2023-09-08T03:54:39;19.50;82.70
27940;DHT22;15275;51.716;14.324;2023-09-08T03:57:04;19.50;82.60
27940;DHT22;15275;51.716;14.324;2023-09-08T03:59:30;19.50;82.60
27940;DHT22;15275;51.716;14.324;2023-09-08T04:01:56;19.50;82.60
27940;DHT22;15275;51.716;14.324;2023-09-08T04:04:22;19.40;82.60
27940;DHT22;15275;51.716;14.324;2023-09-08T04:06:48;19.50;82.70
27940;DHT22;15275;51.716;14.324;2023-09-08T04:09:14;19.40;82.70
27940;DHT22;15275;51.716;14.324;2023-09-08T04:11:40;19.40;82.70
27940;DHT22;15275;51.716;14.324;2023-09-08T04:14:05;19.40;82.80
27940;DHT22;15275;51.716;14.324;2023-09-08T04:16:31;19.40;82.80
27940;DHT22;15275;51.716;14.324;2023-09-08T04:18:57;19.40;82.90
27940;DHT22;15275;51.716;14.324;2023-09-08T04:21:22;19.40;82.90
27940;DHT22;15275;51.716;14.324;2023-09-08T04:23:48;19.40;82.90
27940;DHT22;15275;51.716;14.324;2023-09-08T04:26:14;19.40;83.00
27940;DHT22;15275;51.716;14.324;2023-09-08T04:28:39;19.40;82.90
27940;DHT22;15275;51.716;14.324;2023-09-08T04:31:05;19.40;82.90
27940;DHT22;15275;51.716;14.324;2023-09-08T04:33:31;19.40;82.90
27940;DHT22;15275;51.716;14.324;2023-09-08T04:35:56;19.40;82.90
27940;DHT22;15275;51.716;14.324;2023-09-08T04:38:22;19.40;82.90
27940;DHT22;15275;51.716;14.324;2023-09-08T04:40:48;19.40;82.90
27940;DHT22;15275;51.716;14.324;2023-09-08T04:43:13;19.40;82.90
27940;DHT22;15275;51.716;14.324;2023-09-08T04:45:40;19.40;82.90
27940;DHT22;15275;51.716;14.324;2023-09-08T04:48:05;19.40;82.90
27940;DHT22;15275;51.716;14.324;2023-09-08T04:50:31;19.40;83.00
27940;DHT22;15275;51.716;14.324;2023-09-08T04:52:58;19.40;83.00
27940;DHT22;15275;51.716;14.324;2023-09-08T04:55:23;19.40;83.00
27940;DHT22;15275;51.716;14.324;2023-09-08T04:57:49;19.40;83.00
27940;DHT22;15275;51.716;14.324;2023-09-08T05:00:15;19.40;83.00
27940;DHT22;15275;51.716;14.324;2023-09-08T05:02:41;19.40;83.00
27940;DHT22;15275;51.716;14.324;2023-09-08T05:05:07;19.40;83.10
27940;DHT22;15275;51.716;14.324;2023-09-08T05:07:33;19.40;83.10
27940;DHT22;15275;51.716;14.324;2023-09-08T05:09:58;19.40;83.00
27940;DHT22;15275;51.716;14.324;2023-09-08T05:12:24;19.40;83.00
27940;DHT22;15275;51.716;14.324;2023-09-08T05:14:50;19.50;83.10
27940;DHT22;15275;51.716;14.324;2023-09-08T05:17:21;19.50;83.10
27940;DHT22;15275;51.716;14.324;2023-09-08T05:19:47;19.50;83.20
27940;DHT22;15275;51.716;14.324;2023-09-08T05:22:13;19.50;83.10
27940;DHT22;15275;51.716;14.324;2023-09-08T05:24:39;19.50;83.00
27940;DHT22;15275;51.716;14.324;2023-09-08T05:27:05;19.50;83.10
27940;DHT22;15275;51.716;14.324;2023-09-08T05:29:30;19.60;83.10
27940;DHT22;15275;51.716;14.324;2023-09-08T05:31:56;19.60;83.20
27940;DHT22;15275;51.716;14.324;2023-09-08T05:34:22;19.60;83.30
27940;DHT22;15275;51.716;14.324;2023-09-08T05:36:47;19.70;83.40
27940;DHT22;15275;51.716;14.324;2023-09-08T05:39:14;19.70;83.50
27940;DHT22;15275;51.716;14.324;2023-09-08T05:41:40;19.70;83.50
27940;DHT22;15275;51.716;14.324;2023-09-08T05:44:06;19.80;83.50
27940;DHT22;15275;51.716;14.324;2023-09-08T05:46:31;19.80;83.60
27940;DHT22;15275;51.716;14.324;2023-09-08T05:48:57;19.90;83.70
27940;DHT22;15275;51.716;14.324;2023-09-08T05:51:23;20.00;83.70
27940;DHT22;15275;51.716;14.324;2023-09-08T05:53:49;20.00;83.60
27940;DHT22;15275;51.716;14.324;2023-09-08T05:56:15;20.10;83.60
27940;DHT22;15275;51.716;14.324;2023-09-08T05:58:40;20.10;83.60
27940;DHT22;15275;51.716;14.324;2023-09-08T06:01:06;20.20;83.70
27940;DHT22;15275;51.716;14.324;2023-09-08T06:03:32;20.20;83.70
27940;DHT22;15275;51.716;14.324;2023-09-08T06:05:58;20.30;83.50
27940;DHT22;15275;51.716;14.324;2023-09-08T06:08:23;20.40;83.50
27940;DHT22;15275;51.716;14.324;2023-09-08T06:10:49;20.40;83.60
27940;DHT22;15275;51.716;14.324;2023-09-08T06:13:15;20.50;83.50
27940;DHT22;15275;51.716;14.324;2023-09-08T06:15:41;20.60;83.50
27940;DHT22;15275;51.716;14.324;2023-09-08T06:18:07;20.60;83.40
27940;DHT22;15275;51.716;14.324;2023-09-08T06:20:33;20.70;83.50
27940;DHT22;15275;51.716;14.324;2023-09-08T06:22:59;20.80;83.70
27940;DHT22;15275;51.716;14.324;2023-09-08T06:25:24;20.80;83.60
27940;DHT22;15275;51.716;14.324;2023-09-08T06:27:51;20.90;83.80
27940;DHT22;15275;51.716;14.324;2023-09-08T06:30:17;21.00;83.80
27940;DHT22;15275;51.716;14.324;2023-09-08T06:32:43;21.10;83.90
27940;DHT22;15275;51.716;14.324;2023-09-08T06:35:09;21.20;83.80
27940;DHT22;15275;51.716;14.324;2023-09-08T06:37:35;21.30;83.80
27940;DHT22;15275;51.716;14.324;2023-09-08T06:40:02;21.40;83.80
27940;DHT22;15275;51.716;14.324;2023-09-08T06:42:28;21.40;83.90
27940;DHT22;15275;51.716;14.324;2023-09-08T06:44:54;21.50;83.90
27940;DHT22;15275;51.716;14.324;2023-09-08T06:47:20;21.60;83.90
27940;DHT22;15275;51.716;14.324;2023-09-08T06:49:45;21.70;83.50
27940;DHT22;15275;51.716;14.324;2023-09-08T06:52:12;21.80;83.40
27940;DHT22;15275;51.716;14.324;2023-09-08T06:54:37;21.90;83.20
27940;DHT22;15275;51.716;14.324;2023-09-08T06:57:03;22.00;83.30
27940;DHT22;15275;51.716;14.324;2023-09-08T06:59:29;22.10;83.40
27940;DHT22;15275;51.716;14.324;2023-09-08T07:01:55;22.20;83.50
27940;DHT22;15275;51.716;14.324;2023-09-08T07:04:21;22.30;83.60
27940;DHT22;15275;51.716;14.324;2023-09-08T07:06:46;22.50;83.50
27940;DHT22;15275;51.716;14.324;2023-09-08T07:09:12;22.50;83.60
27940;DHT22;15275;51.716;14.324;2023-09-08T07:11:38;22.70;83.60
27940;DHT22;15275;51.716;14.324;2023-09-08T07:14:04;22.80;83.40
27940;DHT22;15275;51.716;14.324;2023-09-08T07:16:29;22.90;83.10
27940;DHT22;15275;51.716;14.324;2023-09-08T07:18:55;23.00;83.40
27940;DHT22;15275;51.716;14.324;2023-09-08T07:21:21;23.10;83.10
27940;DHT22;15275;51.716;14.324;2023-09-08T07:23:47;23.20;83.50
27940;DHT22;15275;51.716;14.324;2023-09-08T07:26:13;23.30;83.40
27940;DHT22;15275;51.716;14.324;2023-09-08T07:28:39;23.50;82.80
27940;DHT22;15275;51.716;14.324;2023-09-08T07:31:05;23.60;83.10
27940;DHT22;15275;51.716;14.324;2023-09-08T07:33:31;23.70;83.30
27940;DHT22;15275;51.716;14.324;2023-09-08T07:35:57;23.80;83.20
27940;DHT22;15275;51.716;14.324;2023-09-08T07:38:24;23.90;83.20
27940;DHT22;15275;51.716;14.324;2023-09-08T07:40:50;24.00;83.00
27940;DHT22;15275;51.716;14.324;2023-09-08T07:43:16;24.20;82.60
27940;DHT22;15275;51.716;14.324;2023-09-08T07:45:41;24.30;83.10
27940;DHT22;15275;51.716;14.324;2023-09-08T07:48:07;24.40;82.80
27940;DHT22;15275;51.716;14.324;2023-09-08T07:50:33;24.50;82.70
27940;DHT22;15275;51.716;14.324;2023-09-08T07:52:59;24.60;82.90
27940;DHT22;15275;51.716;14.324;2023-09-08T07:55:24;24.70;82.80
27940;DHT22;15275;51.716;14.324;2023-09-08T07:57:53;24.90;82.90
27940;DHT22;15275;51.716;14.324;2023-09-08T08:00:19;25.00;82.90
27940;DHT22;15275;51.716;14.324;2023-09-08T08:02:46;25.10;82.80
27940;DHT22;15275;51.716;14.324;2023-09-08T08:05:17;25.20;82.50
27940;DHT22;15275;51.716;14.324;2023-09-08T08:07:43;25.30;81.90
27940;DHT22;15275;51.716;14.324;2023-09-08T08:10:09;25.50;81.80
27940;DHT22;15275;51.716;14.324;2023-09-08T08:12:36;25.60;82.00
27940;DHT22;15275;51.716;14.324;2023-09-08T08:15:02;25.70;81.30
27940;DHT22;15275;51.716;14.324;2023-09-08T08:17:28;25.80;81.60
27940;DHT22;15275;51.716;14.324;2023-09-08T08:19:55;25.90;81.80
27940;DHT22;15275;51.716;14.324;2023-09-08T08:22:21;26.00;82.00
27940;DHT22;15275;51.716;14.324;2023-09-08T08:24:47;26.20;82.30
27940;DHT22;15275;51.716;14.324;2023-09-08T08:27:12;26.30;81.80
27940;DHT22;15275;51.716;14.324;2023-09-08T08:29:38;26.40;81.60
27940;DHT22;15275;51.716;14.324;2023-09-08T08:32:04;26.50;81.80
27940;DHT22;15275;51.716;14.324;2023-09-08T08:34:30;26.60;81.20
27940;DHT22;15275;51.716;14.324;2023-09-08T08:36:56;26.70;80.80
27940;DHT22;15275;51.716;14.324;2023-09-08T08:39:22;26.90;81.20
27940;DHT22;15275;51.716;14.324;2023-09-08T08:41:48;27.00;80.80
27940;DHT22;15275;51.716;14.324;2023-09-08T08:44:14;27.10;81.10
27940;DHT22;15275;51.716;14.324;2023-09-08T08:46:41;27.20;80.50
27940;DHT22;15275;51.716;14.324;2023-09-08T08:49:07;27.30;80.80
27940;DHT22;15275;51.716;14.324;2023-09-08T08:51:34;27.40;81.00
27940;DHT22;15275;51.716;14.324;2023-09-08T08:54:01;27.50;80.50
27940;DHT22;15275;51.716;14.324;2023-09-08T08:56:30;27.60;79.00
27940;DHT22;15275;51.716;14.324;2023-09-08T08:58:57;27.70;79.90
27940;DHT22;15275;51.716;14.324;2023-09-08T09:01:23;27.80;77.90
27940;DHT22;15275;51.716;14.324;2023-09-08T09:03:50;27.90;79.40
27940;DHT22;15275;51.716;14.324;2023-09-08T09:06:17;28.00;78.40
27940;DHT22;15275;51.716;14.324;2023-09-08T09:08:43;28.10;79.60
27940;DHT22;15275;51.716;14.324;2023-09-08T09:11:09;28.20;80.20
27940;DHT22;15275;51.716;14.324;2023-09-08T09:13:35;28.30;79.50
27940;DHT22;15275;51.716;14.324;2023-09-08T09:16:01;28.40;78.80
27940;DHT22;15275;51.716;14.324;2023-09-08T09:18:31;28.50;79.40
27940;DHT22;15275;51.716;14.324;2023-09-08T09:21:01;28.60;78.00
27940;DHT22;15275;51.716;14.324;2023-09-08T09:25:54;28.70;78.40
27940;DHT22;15275;51.716;14.324;2023-09-08T09:28:20;28.90;79.50
27940;DHT22;15275;51.716;14.324;2023-09-08T09:30:46;28.90;76.50
27940;DHT22;15275;51.716;14.324;2023-09-08T09:33:13;29.00;79.10
27940;DHT22;15275;51.716;14.324;2023-09-08T09:35:40;29.10;78.60
27940;DHT22;15275;51.716;14.324;2023-09-08T09:38:07;29.20;78.70
27940;DHT22;15275;51.716;14.324;2023-09-08T09:40:36;29.30;78.80
27940;DHT22;15275;51.716;14.324;2023-09-08T09:43:02;29.40;78.90
27940;DHT22;15275;51.716;14.324;2023-09-08T09:45:30;29.50;78.70
27940;DHT22;15275;51.716;14.324;2023-09-08T09:47:56;29.60;78.00
27940;DHT22;15275;51.716;14.324;2023-09-08T09:50:32;29.70;77.70
27940;DHT22;15275;51.716;14.324;2023-09-08T09:53:00;29.70;77.00
27940;DHT22;15275;51.716;14.324;2023-09-08T09:55:28;29.80;76.70
27940;DHT22;15275;51.716;14.324;2023-09-08T09:57:55;29.90;75.80
27940;DHT22;15275;51.716;14.324;2023-09-08T10:00:25;29.90;76.90
27940;DHT22;15275;51.716;14.324;2023-09-08T10:02:52;30.00;77.30
27940;DHT22;15275;51.716;14.324;2023-09-08T10:05:19;30.10;77.70
27940;DHT22;15275;51.716;14.324;2023-09-08T10:07:46;30.10;77.50
27940;DHT22;15275;51.716;14.324;2023-09-08T10:10:12;30.20;78.00
27940;DHT22;15275;51.716;14.324;2023-09-08T10:12:38;30.30;75.20
27940;DHT22;15275;51.716;14.324;2023-09-08T10:15:12;30.40;75.60
27940;DHT22;15275;51.716;14.324;2023-09-08T10:17:40;30.50;77.40
27940;DHT22;15275;51.716;14.324;2023-09-08T10:20:07;30.60;78.00
27940;DHT22;15275;51.716;14.324;2023-09-08T10:22:42;30.70;77.40
27940;DHT22;15275;51.716;14.324;2023-09-08T10:25:09;30.70;78.10
27940;DHT22;15275;51.716;14.324;2023-09-08T10:27:36;30.80;77.90
27940;DHT22;15275;51.716;14.324;2023-09-08T10:30:02;30.90;78.30
27940;DHT22;15275;51.716;14.324;2023-09-08T10:32:32;31.00;77.70
27940;DHT22;15275;51.716;14.324;2023-09-08T10:35:00;31.00;77.80
27940;DHT22;15275;51.716;14.324;2023-09-08T10:37:26;31.10;77.60
27940;DHT22;15275;51.716;14.324;2023-09-08T10:39:55;31.20;77.20
27940;DHT22;15275;51.716;14.324;2023-09-08T10:42:22;31.20;77.30
27940;DHT22;15275;51.716;14.324;2023-09-08T10:50:15;31.40;76.90
27940;DHT22;15275;51.716;14.324;2023-09-08T10:52:42;31.50;77.00
27940;DHT22;15275;51.716;14.324;2023-09-08T10:55:08;31.60;77.30
27940;DHT22;15275;51.716;14.324;2023-09-08T10:57:34;31.70;76.70
27940;DHT22;15275;51.716;14.324;2023-09-08T11:00:00;31.70;76.20
27940;DHT22;15275;51.716;14.324;2023-09-08T11:05:10;31.90;77.10
27940;DHT22;15275;51.716;14.324;2023-09-08T11:07:39;31.90;74.60
27940;DHT22;15275;51.716;14.324;2023-09-08T11:10:06;32.00;76.40
27940;DHT22;15275;51.716;14.324;2023-09-08T11:12:32;32.10;76.00
27940;DHT22;15275;51.716;14.324;2023-09-08T11:14:58;32.10;76.40
27940;DHT22;15275;51.716;14.324;2023-09-08T11:17:32;32.20;76.70
27940;DHT22;15275;51.716;14.324;2023-09-08T11:20:00;32.20;76.70
27940;DHT22;15275;51.716;14.324;2023-09-08T11:22:27;32.30;76.90
27940;DHT22;15275;51.716;14.324;2023-09-08T11:24:53;32.40;75.50
27940;DHT22;15275;51.716;14.324;2023-09-08T11:27:22;32.40;74.70
27940;DHT22;15275;51.716;14.324;2023-09-08T11:29:49;32.40;75.80
27940;DHT22;15275;51.716;14.324;2023-09-08T11:32:15;32.50;75.00
27940;DHT22;15275;51.716;14.324;2023-09-08T11:34:41;32.50;75.60
27940;DHT22;15275;51.716;14.324;2023-09-08T11:37:13;32.60;76.00
27940;DHT22;15275;51.716;14.324;2023-09-08T11:39:44;32.60;76.60
27940;DHT22;15275;51.716;14.324;2023-09-08T11:42:12;32.70;76.40
27940;DHT22;15275;51.716;14.324;2023-09-08T11:44:39;32.70;75.60
27940;DHT22;15275;51.716;14.324;2023-09-08T11:47:09;32.70;74.90
27940;DHT22;15275;51.716;14.324;2023-09-08T11:49:39;32.80;75.80
27940;DHT22;15275;51.716;14.324;2023-09-08T11:52:06;32.80;76.40
27940;DHT22;15275;51.716;14.324;2023-09-08T11:54:33;32.90;75.30
27940;DHT22;15275;51.716;14.324;2023-09-08T11:57:00;32.90;75.70
27940;DHT22;15275;51.716;14.324;2023-09-08T11:59:35;33.00;76.30
27940;DHT22;15275;51.716;14.324;2023-09-08T12:02:01;33.00;74.70
27940;DHT22;15275;51.716;14.324;2023-09-08T12:04:27;33.10;75.20
27940;DHT22;15275;51.716;14.324;2023-09-08T12:06:53;33.10;74.40
27940;DHT22;15275;51.716;14.324;2023-09-08T12:09:21;33.10;72.90
27940;DHT22;15275;51.716;14.324;2023-09-08T12:11:48;33.10;72.90
27940;DHT22;15275;51.716;14.324;2023-09-08T12:14:14;33.10;72.00
27940;DHT22;15275;51.716;14.324;2023-09-08T12:16:41;33.20;72.90
27940;DHT22;15275;51.716;14.324;2023-09-08T12:19:07;33.20;73.10
27940;DHT22;15275;51.716;14.324;2023-09-08T12:21:35;33.20;74.00
27940;DHT22;15275;51.716;14.324;2023-09-08T12:24:08;33.20;73.90
27940;DHT22;15275;51.716;14.324;2023-09-08T12:26:38;33.20;74.80
27940;DHT22;15275;51.716;14.324;2023-09-08T12:29:03;33.30;75.50
27940;DHT22;15275;51.716;14.324;2023-09-08T12:31:29;33.30;75.90
27940;DHT22;15275;51.716;14.324;2023-09-08T12:33:55;33.40;75.60
27940;DHT22;15275;51.716;14.324;2023-09-08T12:36:21;33.40;74.70
27940;DHT22;15275;51.716;14.324;2023-09-08T12:38:50;33.50;75.00
27940;DHT22;15275;51.716;14.324;2023-09-08T12:41:17;33.50;73.30
27940;DHT22;15275;51.716;14.324;2023-09-08T12:43:42;33.50;72.40
27940;DHT22;15275;51.716;14.324;2023-09-08T12:46:08;33.50;72.80
27940;DHT22;15275;51.716;14.324;2023-09-08T12:48:35;33.50;74.20
27940;DHT22;15275;51.716;14.324;2023-09-08T12:51:00;33.60;75.00
27940;DHT22;15275;51.716;14.324;2023-09-08T12:53:26;33.60;75.40
27940;DHT22;15275;51.716;14.324;2023-09-08T12:55:52;33.60;75.10
27940;DHT22;15275;51.716;14.324;2023-09-08T12:58:19;33.60;75.40
27940;DHT22;15275;51.716;14.324;2023-09-08T13:00:44;33.60;72.90
27940;DHT22;15275;51.716;14.324;2023-09-08T13:03:10;33.70;71.20
27940;DHT22;15275;51.716;14.324;2023-09-08T13:05:36;33.70;71.70
27940;DHT22;15275;51.716;14.324;2023-09-08T13:08:04;33.70;72.80
27940;DHT22;15275;51.716;14.324;2023-09-08T13:10:30;33.70;72.10
27940;DHT22;15275;51.716;14.324;2023-09-08T13:12:55;33.70;70.60
27940;DHT22;15275;51.716;14.324;2023-09-08T13:15:21;33.60;72.20
27940;DHT22;15275;51.716;14.324;2023-09-08T13:17:48;33.70;73.10
27940;DHT22;15275;51.716;14.324;2023-09-08T13:20:13;33.70;72.50
27940;DHT22;15275;51.716;14.324;2023-09-08T13:22:39;33.70;74.20
27940;DHT22;15275;51.716;14.324;2023-09-08T13:25:05;33.70;74.60
27940;DHT22;15275;51.716;14.324;2023-09-08T13:27:31;33.70;75.00
27940;DHT22;15275;51.716;14.324;2023-09-08T13:30:09;33.70;75.30
27940;DHT22;15275;51.716;14.324;2023-09-08T13:32:36;33.70;74.60
27940;DHT22;15275;51.716;14.324;2023-09-08T13:35:02;33.80;72.30
27940;DHT22;15275;51.716;14.324;2023-09-08T13:37:28;33.80;73.90
27940;DHT22;15275;51.716;14.324;2023-09-08T13:39:56;33.80;73.70
27940;DHT22;15275;51.716;14.324;2023-09-08T13:42:22;33.80;72.70
27940;DHT22;15275;51.716;14.324;2023-09-08T13:44:48;33.80;73.30
27940;DHT22;15275;51.716;14.324;2023-09-08T13:47:13;33.80;73.30
27940;DHT22;15275;51.716;14.324;2023-09-08T13:49:39;33.80;68.80
27940;DHT22;15275;51.716;14.324;2023-09-08T13:52:05;33.80;70.90
27940;DHT22;15275;51.716;14.324;2023-09-08T13:54:31;33.80;70.10
27940;DHT22;15275;51.716;14.324;2023-09-08T13:57:01;33.80;71.40
27940;DHT22;15275;51.716;14.324;2023-09-08T13:59:28;33.80;69.40
27940;DHT22;15275;51.716;14.324;2023-09-08T14:01:54;33.80;72.40
27940;DHT22;15275;51.716;14.324;2023-09-08T14:04:20;33.80;73.20
27940;DHT22;15275;51.716;14.324;2023-09-08T14:06:46;33.80;72.90
27940;DHT22;15275;51.716;14.324;2023-09-08T14:09:12;33.80;68.70
27940;DHT22;15275;51.716;14.324;2023-09-08T14:11:38;33.80;72.80
27940;DHT22;15275;51.716;14.324;2023-09-08T14:14:04;33.80;73.80
27940;DHT22;15275;51.716;14.324;2023-09-08T14:16:29;33.80;72.50
27940;DHT22;15275;51.716;14.324;2023-09-08T14:18:55;33.80;74.00
27940;DHT22;15275;51.716;14.324;2023-09-08T14:21:21;33.90;73.80
27940;DHT22;15275;51.716;14.324;2023-09-08T14:23:46;33.90;72.50
27940;DHT22;15275;51.716;14.324;2023-09-08T14:26:12;33.90;70.10
27940;DHT22;15275;51.716;14.324;2023-09-08T14:28:38;33.90;71.40
27940;DHT22;15275;51.716;14.324;2023-09-08T14:31:04;33.90;73.60
27940;DHT22;15275;51.716;14.324;2023-09-08T14:33:30;33.90;74.30
27940;DHT22;15275;51.716;14.324;2023-09-08T14:35:56;33.90;74.60
27940;DHT22;15275;51.716;14.324;2023-09-08T14:38:22;33.90;73.00
27940;DHT22;15275;51.716;14.324;2023-09-08T14:40:55;33.90;74.30
27940;DHT22;15275;51.716;14.324;2023-09-08T14:43:27;33.90;74.90
27940;DHT22;15275;51.716;14.324;2023-09-08T14:45:54;33.90;74.20
27940;DHT22;15275;51.716;14.324;2023-09-08T14:48:22;33.90;74.30
27940;DHT22;15275;51.716;14.324;2023-09-08T14:50:48;33.90;73.00
27940;DHT22;15275;51.716;14.324;2023-09-08T14:53:14;33.90;72.00
27940;DHT22;15275;51.716;14.324;2023-09-08T14:55:40;33.90;73.70
27940;DHT22;15275;51.716;14.324;2023-09-08T14:58:06;33.90;73.10
27940;DHT22;15275;51.716;14.324;2023-09-08T15:00:32;33.90;73.50
27940;DHT22;15275;51.716;14.324;2023-09-08T15:02:57;33.90;74.10
27940;DHT22;15275;51.716;14.324;2023-09-08T15:05:23;33.90;73.90
27940;DHT22;15275;51.716;14.324;2023-09-08T15:07:49;33.90;73.90
27940;DHT22;15275;51.716;14.324;2023-09-08T15:10:15;33.90;74.50
27940;DHT22;15275;51.716;14.324;2023-09-08T15:12:40;33.90;74.50
27940;DHT22;15275;51.716;14.324;2023-09-08T15:15:06;33.90;73.50
27940;DHT22;15275;51.716;14.324;2023-09-08T15:17:32;33.90;72.30
27940;DHT22;15275;51.716;14.324;2023-09-08T15:19:58;33.90;73.20
27940;DHT22;15275;51.716;14.324;2023-09-08T15:22:25;33.80;73.80
27940;DHT22;15275;51.716;14.324;2023-09-08T15:24:51;33.80;73.50